Flight Track Log - Related Links

Times and Time Zones

All times are in EDT time to prevent confusion due to time zone crossing. See the N230DS flight status page for this flight to view local times or setup timezone preferences in your user account.

Time Position Orientation Groundspeed Altitude Reporting Facility
EDT Latitude Longitude Course Direction KTS MPH feet Rate Location/Type
Fri 12:15:04 AM 40.7575 -112.1800 235° Southwest 135 155 5,500  Level Salt Lake Center
Fri 12:16:05 AM 40.7369 -112.2181 236° Southwest 117 135 6,100 545 Climbing Salt Lake Center
Fri 12:17:05 AM 40.7214 -112.2486 246° West 104 120 6,600 186 Climbing Salt Lake Center
Fri 12:18:14 AM 40.7058 -112.2942 273° West 130 150 6,500 -46 Descending Salt Lake Center
Fri 12:19:16 AM 40.7075 -112.3403 278° West 129 148 6,500  Level Salt Lake Center
Fri 12:20:17 AM 40.7128 -112.3886 281° West 131 151 6,500  Level Salt Lake Center
Fri 12:21:18 AM 40.7197 -112.4367 279° West 132 152 6,500  Level Salt Lake Center
Fri 12:22:20 AM 40.7256 -112.4844 270° West 132 152 6,500  Level Salt Lake Center
Fri 12:23:21 AM 40.7258 -112.5303 279° West 126 145 6,500 49 Level Salt Lake Center
Fri 12:24:22 AM 40.7311 -112.5728 290° West 118 136 6,600 98 Climbing Salt Lake Center
Fri 12:25:24 AM 40.7425 -112.6147 285° West 119 137 6,700 -49 Climbing Salt Lake Center
Fri 12:26:25 AM 40.7519 -112.6608 271° West 133 153 6,500 -146 Descending Salt Lake Center
Fri 12:27:27 AM 40.7528 -112.7097 279° West 130 150 6,400  Descending Salt Lake Center
Fri 12:28:28 AM 40.7583 -112.7547 295° West 124 143 6,500 197 Climbing Salt Lake Center
Fri 12:29:29 AM 40.7719 -112.7936 303° West 122 140 6,800 244 Climbing Salt Lake Center
Fri 12:30:31 AM 40.7906 -112.8314 303° West 122 140 7,000 146 Climbing Salt Lake Center
Fri 12:31:32 AM 40.8097 -112.8706 295° West 124 143 7,100 195 Climbing Salt Lake Center
Fri 12:32:34 AM 40.8239 -112.9100 225° Southwest 121 139 7,400 -49 Climbing Salt Lake Center
Fri 12:33:35 AM 40.7911 -112.9539 228° Southwest 142 163 7,000 -488 Descending Salt Lake Center
Fri 12:34:37 AM 40.7672 -112.9889 242° Southwest 134 154 6,400 -244 Descending Salt Lake Center
Fri 12:35:38 AM 40.7511 -113.0289 251° West 127 146 6,500  Climbing Salt Lake Center
Fri 12:36:39 AM 40.7400 -113.0725 250° West 125 144 6,400 -49 Descending Salt Lake Center
Fri 12:37:41 AM 40.7278 -113.1164 258° West 125 144 6,400  Level Salt Lake Center
Fri 12:38:42 AM 40.7203 -113.1636 273° West 128 147 6,400 98 Level Salt Lake Center
Fri 12:39:43 AM 40.7222 -113.2106 276° West 125 144 6,600  Climbing Salt Lake Center
Fri 12:40:45 AM 40.7256 -113.2519 266° West 118 136 6,400  Descending Salt Lake Center
Fri 12:41:46 AM 40.7233 -113.2928 255° West 113 130 6,600 98 Climbing Salt Lake Center
Fri 12:42:48 AM 40.7139 -113.3394 254° West 121 139 6,600  Level Salt Lake Center
Fri 12:43:49 AM 40.7039 -113.3858 257° West 128 147 6,600  Level Salt Lake Center
Fri 12:44:50 AM 40.6956 -113.4350 266° West 134 154 6,600  Level Salt Lake Center
Fri 12:45:52 AM 40.6931 -113.4831 273° West 132 152 6,600 -49 Level Salt Lake Center
Fri 12:46:53 AM 40.6950 -113.5386 272° West 130 150 6,500 -49 Descending Salt Lake Center
Fri 12:47:54 AM 40.6961 -113.5886 274° West 131 151 6,500 49 Level Salt Lake Center
Fri 12:48:56 AM 40.6986 -113.6378 277° West 133 153 6,600 146 Climbing Salt Lake Center
Fri 12:49:57 AM 40.7031 -113.6867 277° West 133 153 6,800 197 Climbing Salt Lake Center

Login

Don't have an account? Register now (free) for customized features, flight alerts, and more!